Maldives Meteorological Service

SYNOP

Station Code SYNOP
43555
AAXX 28034 43555 41459 30908 10286 20235 30128 40130 70510 81102 333 20261 59006 81819 555 10040=
43533
AAXX 28034 43533 42460 20505 10275 20239 30129 40131 82201 333 20245 59004 82818 555 10022 =
43577
AAXX 28034 43577 42460 53605 10282 20232 30128 40130 81242 333 20256 58000 81818 85077 555 10018=
43588
AAXX 28034 43588 42459 73605 10280 20236 30125 40126 82238 333 20263 58000 82818 83362 87275 555 10257=
43599
AAXX 28034 43599 41458 70506 10286 20249 30120 40122 70522 83238 333 20270 59003 82818 83361 87275 555 10288= "
Last Updated : 2020-01-28 08:05:10